Eliza — WDG9716 — position and weather

sailwx.info

Track history (hours):
 
Tides and Currents Weather Stations Pressure Air Temp Water Temp Dewpoint Dewpoint Depression Visibility Wind Speed Wind Dir Waves Ship Positions

Eliza

Owner: Kirby Offshore Marine, LLC, Staten Island, NY. More information available from US FCC via Universal Licensing System and Coast Guard Vessel Documentation Center.

Last reported at 2017-Oct-13 07:31 UTC. Time now 2017-Oct-18 23:56 UTC.
Position N 29°15' W 094°41'.

Length 173 m; draft 5.4 m.

Type: . MMSI: 366672810.

Date/timePositionNaut miles runAvg speedWind from/ knotsBaromVisibWave heightAir tempDewpointWater temp
2017-Oct-13 07:31N 29°15' W 094°41'0 0.0
2017-Oct-13 07:27N 29°15' W 094°41'0 0.0
2017-Oct-13 05:14N 29°15' W 094°41'0 0.0
2017-Oct-13 04:58N 29°15' W 094°41'0 0.0
2017-Oct-13 04:30N 29°15' W 094°41'0 0.0
2017-Oct-13 04:00N 29°15' W 094°41'0 0.0
2017-Oct-13 03:30N 29°15' W 094°41'  
2017-Oct-09 02:24N 29°50' W 093°58'0 0.0
2017-Oct-09 01:48N 29°50' W 093°58'52 1.1
2017-Oct-07 03:21N 29°21' W 094°47'411.4
2017-Oct-07 03:00N 29°25' W 094°50'611.1
2017-Oct-07 02:30N 29°30' W 094°52'611.0
2017-Oct-07 02:00N 29°35' W 094°56'511.1
2017-Oct-07 01:30N 29°40' W 094°58'5 9.0
2017-Oct-07 01:00N 29°43' W 095°01'4 7.6
2017-Oct-07 00:27N 29°45' W 095°05'1 0.3
2017-Oct-06 21:16N 29°45' W 095°06'0 0.0
2017-Oct-06 18:58N 29°45' W 095°06'0 0.0
2017-Oct-06 16:46N 29°45' W 095°06'0 0.0
2017-Oct-06 15:10N 29°45' W 095°06'0 0.0
2017-Oct-06 14:40N 29°45' W 095°06'0 0.0
2017-Oct-06 14:16N 29°45' W 095°06'0 0.0
2017-Oct-06 13:58N 29°45' W 095°06'0 0.0
2017-Oct-06 10:34N 29°45' W 095°06'0 0.0
2017-Oct-06 10:28N 29°45' W 095°06'0 0.0
2017-Oct-06 09:40N 29°45' W 095°06'0 0.0
2017-Oct-06 09:28N 29°45' W 095°06'0 0.0
2017-Oct-06 08:40N 29°45' W 095°06'0 0.9
2017-Oct-06 08:30N 29°45' W 095°06'2 4.4
2017-Oct-06 08:00N 29°45' W 095°04'4 8.2
2017-Oct-06 07:30N 29°42' W 095°00'510.3
2017-Oct-06 07:00N 29°37' W 094°58'510.9
2017-Oct-06 06:30N 29°33' W 094°54'  
Track history (hours):
 
Tides and Currents Weather Stations Pressure Air Temp Water Temp Dewpoint Dewpoint Depression Visibility Wind Speed Wind Dir Waves Ship Positions

Eliza

Owner: Kirby Offshore Marine, LLC, Staten Island, NY. More information available from US FCC via Universal Licensing System and Coast Guard Vessel Documentation Center.

Last reported at 2017-Oct-13 07:31 UTC. Time now 2017-Oct-18 23:56 UTC.
Position N 29°15' W 094°41'.

Length 173 m; draft 5.4 m.

Type: . MMSI: 366672810.

Date/timePositionNaut miles runAvg speedWind from/ knotsBaromVisibWave heightAir tempDewpointWater temp
2017-Oct-13 07:31N 29°15' W 094°41'0 0.0
2017-Oct-13 07:27N 29°15' W 094°41'0 0.0
2017-Oct-13 05:14N 29°15' W 094°41'0 0.0
2017-Oct-13 04:58N 29°15' W 094°41'0 0.0
2017-Oct-13 04:30N 29°15' W 094°41'0 0.0
2017-Oct-13 04:00N 29°15' W 094°41'0 0.0
2017-Oct-13 03:30N 29°15' W 094°41'  
2017-Oct-09 02:24N 29°50' W 093°58'0 0.0
2017-Oct-09 01:48N 29°50' W 093°58'52 1.1
2017-Oct-07 03:21N 29°21' W 094°47'411.4
2017-Oct-07 03:00N 29°25' W 094°50'611.1
2017-Oct-07 02:30N 29°30' W 094°52'611.0
2017-Oct-07 02:00N 29°35' W 094°56'511.1
2017-Oct-07 01:30N 29°40' W 094°58'5 9.0
2017-Oct-07 01:00N 29°43' W 095°01'4 7.6
2017-Oct-07 00:27N 29°45' W 095°05'1 0.3
2017-Oct-06 21:16N 29°45' W 095°06'0 0.0
2017-Oct-06 18:58N 29°45' W 095°06'0 0.0
2017-Oct-06 16:46N 29°45' W 095°06'0 0.0
2017-Oct-06 15:10N 29°45' W 095°06'0 0.0
2017-Oct-06 14:40N 29°45' W 095°06'0 0.0
2017-Oct-06 14:16N 29°45' W 095°06'0 0.0
2017-Oct-06 13:58N 29°45' W 095°06'0 0.0
2017-Oct-06 10:34N 29°45' W 095°06'0 0.0
2017-Oct-06 10:28N 29°45' W 095°06'0 0.0
2017-Oct-06 09:40N 29°45' W 095°06'0 0.0
2017-Oct-06 09:28N 29°45' W 095°06'0 0.0
2017-Oct-06 08:40N 29°45' W 095°06'0 0.9
2017-Oct-06 08:30N 29°45' W 095°06'2 4.4
2017-Oct-06 08:00N 29°45' W 095°04'4 8.2
2017-Oct-06 07:30N 29°42' W 095°00'510.3
2017-Oct-06 07:00N 29°37' W 094°58'510.9
2017-Oct-06 06:30N 29°33' W 094°54'  

Dump ship's entire track history